sensor_id;sensor_type;location;lat;lon;timestamp;P1;durP1;ratioP1;P2;durP2;ratioP2
47713;SDS011;33475;46.614;13.888;2022-09-16T00:01:41;6.50;;;5.95;;
47713;SDS011;33475;46.614;13.888;2022-09-16T00:04:07;6.70;;;4.80;;
47713;SDS011;33475;46.614;13.888;2022-09-16T00:06:33;7.95;;;4.88;;
47713;SDS011;33475;46.614;13.888;2022-09-16T00:08:59;5.03;;;4.53;;
47713;SDS011;33475;46.614;13.888;2022-09-16T00:11:26;5.43;;;4.68;;
47713;SDS011;33475;46.614;13.888;2022-09-16T00:13:53;10.70;;;5.13;;
47713;SDS011;33475;46.614;13.888;2022-09-16T00:16:20;6.47;;;5.80;;
47713;SDS011;33475;46.614;13.888;2022-09-16T00:18:47;7.60;;;5.97;;
47713;SDS011;33475;46.614;13.888;2022-09-16T00:21:13;6.97;;;6.32;;
47713;SDS011;33475;46.614;13.888;2022-09-16T00:23:40;8.25;;;6.25;;
47713;SDS011;33475;46.614;13.888;2022-09-16T00:26:06;11.88;;;7.03;;
47713;SDS011;33475;46.614;13.888;2022-09-16T00:28:32;13.07;;;7.28;;
47713;SDS011;33475;46.614;13.888;2022-09-16T00:30:58;14.43;;;7.47;;
47713;SDS011;33475;46.614;13.888;2022-09-16T00:33:25;7.95;;;7.25;;
47713;SDS011;33475;46.614;13.888;2022-09-16T00:35:51;10.13;;;7.72;;
47713;SDS011;33475;46.614;13.888;2022-09-16T00:38:18;9.65;;;7.72;;
47713;SDS011;33475;46.614;13.888;2022-09-16T00:40:44;11.02;;;7.82;;
47713;SDS011;33475;46.614;13.888;2022-09-16T00:43:18;12.68;;;7.43;;
47713;SDS011;33475;46.614;13.888;2022-09-16T00:45:45;13.45;;;8.10;;
47713;SDS011;33475;46.614;13.888;2022-09-16T00:48:14;12.80;;;7.80;;
47713;SDS011;33475;46.614;13.888;2022-09-16T00:50:48;10.57;;;7.65;;
47713;SDS011;33475;46.614;13.888;2022-09-16T00:53:19;7.90;;;6.97;;
47713;SDS011;33475;46.614;13.888;2022-09-16T00:55:47;10.63;;;7.30;;
47713;SDS011;33475;46.614;13.888;2022-09-16T00:58:16;8.68;;;7.78;;
47713;SDS011;33475;46.614;13.888;2022-09-16T01:00:45;13.77;;;7.70;;
47713;SDS011;33475;46.614;13.888;2022-09-16T01:03:12;8.05;;;7.10;;
47713;SDS011;33475;46.614;13.888;2022-09-16T01:05:38;12.88;;;7.07;;
47713;SDS011;33475;46.614;13.888;2022-09-16T01:08:04;10.98;;;6.35;;
47713;SDS011;33475;46.614;13.888;2022-09-16T01:10:30;6.90;;;6.30;;
47713;SDS011;33475;46.614;13.888;2022-09-16T01:13:02;8.65;;;6.53;;
47713;SDS011;33475;46.614;13.888;2022-09-16T01:15:40;7.63;;;6.93;;
47713;SDS011;33475;46.614;13.888;2022-09-16T01:18:27;7.65;;;6.32;;
47713;SDS011;33475;46.614;13.888;2022-09-16T01:23:35;13.85;;;6.55;;
47713;SDS011;33475;46.614;13.888;2022-09-16T01:34:00;5.85;;;5.18;;
47713;SDS011;33475;46.614;13.888;2022-09-16T01:36:40;8.00;;;5.68;;
47713;SDS011;33475;46.614;13.888;2022-09-16T01:46:57;8.80;;;5.22;;
47713;SDS011;33475;46.614;13.888;2022-09-16T01:54:26;6.60;;;4.13;;
47713;SDS011;33475;46.614;13.888;2022-09-16T01:59:36;6.30;;;3.53;;
47713;SDS011;33475;46.614;13.888;2022-09-16T02:04:59;6.20;;;3.75;;
47713;SDS011;33475;46.614;13.888;2022-09-16T02:07:27;4.85;;;3.80;;
47713;SDS011;33475;46.614;13.888;2022-09-16T02:09:56;10.95;;;3.38;;
47713;SDS011;33475;46.614;13.888;2022-09-16T02:12:25;7.72;;;4.07;;
47713;SDS011;33475;46.614;13.888;2022-09-16T02:14:53;6.30;;;4.80;;
47713;SDS011;33475;46.614;13.888;2022-09-16T02:17:22;5.55;;;4.13;;
47713;SDS011;33475;46.614;13.888;2022-09-16T02:19:56;5.40;;;4.50;;
47713;SDS011;33475;46.614;13.888;2022-09-16T02:22:26;5.07;;;4.68;;
47713;SDS011;33475;46.614;13.888;2022-09-16T02:24:54;7.22;;;4.82;;
47713;SDS011;33475;46.614;13.888;2022-09-16T02:27:23;5.20;;;4.68;;
47713;SDS011;33475;46.614;13.888;2022-09-16T02:29:51;6.65;;;4.32;;
47713;SDS011;33475;46.614;13.888;2022-09-16T02:32:20;5.93;;;5.18;;
47713;SDS011;33475;46.614;13.888;2022-09-16T02:34:49;6.18;;;5.57;;
47713;SDS011;33475;46.614;13.888;2022-09-16T02:37:36;6.05;;;5.55;;
47713;SDS011;33475;46.614;13.888;2022-09-16T02:40:06;8.55;;;4.60;;
47713;SDS011;33475;46.614;13.888;2022-09-16T02:42:34;5.45;;;4.95;;
47713;SDS011;33475;46.614;13.888;2022-09-16T02:45:00;5.47;;;5.03;;
47713;SDS011;33475;46.614;13.888;2022-09-16T02:47:32;4.20;;;3.80;;
47713;SDS011;33475;46.614;13.888;2022-09-16T02:52:41;4.00;;;3.70;;
47713;SDS011;33475;46.614;13.888;2022-09-16T02:55:23;5.20;;;4.40;;
47713;SDS011;33475;46.614;13.888;2022-09-16T02:57:54;5.82;;;4.30;;
47713;SDS011;33475;46.614;13.888;2022-09-16T03:00:21;4.78;;;4.28;;
47713;SDS011;33475;46.614;13.888;2022-09-16T03:02:47;4.63;;;4.22;;
47713;SDS011;33475;46.614;13.888;2022-09-16T03:05:14;6.65;;;4.05;;
47713;SDS011;33475;46.614;13.888;2022-09-16T03:07:40;5.00;;;4.60;;
47713;SDS011;33475;46.614;13.888;2022-09-16T03:10:13;5.10;;;4.60;;
47713;SDS011;33475;46.614;13.888;2022-09-16T03:28:09;4.47;;;4.18;;
47713;SDS011;33475;46.614;13.888;2022-09-16T03:30:37;5.18;;;4.25;;
47713;SDS011;33475;46.614;13.888;2022-09-16T03:33:08;4.88;;;4.45;;
47713;SDS011;33475;46.614;13.888;2022-09-16T03:35:44;8.32;;;4.57;;
47713;SDS011;33475;46.614;13.888;2022-09-16T03:38:12;4.43;;;4.03;;
47713;SDS011;33475;46.614;13.888;2022-09-16T03:40:39;6.30;;;5.28;;
47713;SDS011;33475;46.614;13.888;2022-09-16T03:43:09;4.97;;;4.25;;
47713;SDS011;33475;46.614;13.888;2022-09-16T03:45:36;5.35;;;4.38;;
47713;SDS011;33475;46.614;13.888;2022-09-16T03:48:04;4.90;;;4.40;;
47713;SDS011;33475;46.614;13.888;2022-09-16T03:50:31;4.57;;;4.18;;
47713;SDS011;33475;46.614;13.888;2022-09-16T03:52:57;4.75;;;4.00;;
47713;SDS011;33475;46.614;13.888;2022-09-16T03:55:23;4.60;;;3.83;;
47713;SDS011;33475;46.614;13.888;2022-09-16T03:57:51;4.78;;;4.00;;
47713;SDS011;33475;46.614;13.888;2022-09-16T04:00:17;7.93;;;4.60;;
47713;SDS011;33475;46.614;13.888;2022-09-16T04:02:43;5.07;;;4.57;;
47713;SDS011;33475;46.614;13.888;2022-09-16T04:05:09;5.15;;;4.38;;
47713;SDS011;33475;46.614;13.888;2022-09-16T04:07:36;4.57;;;4.15;;
47713;SDS011;33475;46.614;13.888;2022-09-16T04:10:03;6.95;;;4.55;;
47713;SDS011;33475;46.614;13.888;2022-09-16T04:12:29;5.45;;;4.47;;
47713;SDS011;33475;46.614;13.888;2022-09-16T04:14:55;4.50;;;4.05;;
47713;SDS011;33475;46.614;13.888;2022-09-16T04:17:22;4.95;;;4.53;;
47713;SDS011;33475;46.614;13.888;2022-09-16T04:19:48;4.78;;;4.22;;
47713;SDS011;33475;46.614;13.888;2022-09-16T04:22:15;5.25;;;4.45;;
47713;SDS011;33475;46.614;13.888;2022-09-16T04:24:41;6.18;;;4.32;;
47713;SDS011;33475;46.614;13.888;2022-09-16T04:27:07;4.72;;;4.15;;
47713;SDS011;33475;46.614;13.888;2022-09-16T04:29:34;6.95;;;4.40;;
47713;SDS011;33475;46.614;13.888;2022-09-16T04:32:01;5.22;;;4.45;;
47713;SDS011;33475;46.614;13.888;2022-09-16T04:34:27;13.02;;;6.32;;
47713;SDS011;33475;46.614;13.888;2022-09-16T04:36:53;11.93;;;5.68;;
47713;SDS011;33475;46.614;13.888;2022-09-16T04:39:19;9.65;;;5.10;;
47713;SDS011;33475;46.614;13.888;2022-09-16T04:41:46;7.25;;;4.82;;
47713;SDS011;33475;46.614;13.888;2022-09-16T04:44:12;5.28;;;4.47;;
47713;SDS011;33475;46.614;13.888;2022-09-16T04:46:39;6.22;;;5.32;;
47713;SDS011;33475;46.614;13.888;2022-09-16T04:49:05;5.95;;;5.32;;
47713;SDS011;33475;46.614;13.888;2022-09-16T04:51:31;7.95;;;5.70;;
47713;SDS011;33475;46.614;13.888;2022-09-16T04:53:58;8.55;;;5.22;;
47713;SDS011;33475;46.614;13.888;2022-09-16T04:56:26;5.75;;;5.07;;
47713;SDS011;33475;46.614;13.888;2022-09-16T04:58:54;8.27;;;5.07;;
47713;SDS011;33475;46.614;13.888;2022-09-16T05:01:23;5.38;;;4.93;;
47713;SDS011;33475;46.614;13.888;2022-09-16T05:03:50;6.22;;;5.07;;
47713;SDS011;33475;46.614;13.888;2022-09-16T05:06:21;6.10;;;5.13;;
47713;SDS011;33475;46.614;13.888;2022-09-16T05:08:47;8.07;;;5.18;;
47713;SDS011;33475;46.614;13.888;2022-09-16T05:11:15;7.55;;;4.82;;
47713;SDS011;33475;46.614;13.888;2022-09-16T05:13:41;10.55;;;4.43;;
47713;SDS011;33475;46.614;13.888;2022-09-16T05:16:08;5.30;;;4.80;;
47713;SDS011;33475;46.614;13.888;2022-09-16T05:18:36;8.20;;;5.95;;
47713;SDS011;33475;46.614;13.888;2022-09-16T05:21:04;6.07;;;5.47;;
47713;SDS011;33475;46.614;13.888;2022-09-16T05:23:31;5.75;;;5.25;;
47713;SDS011;33475;46.614;13.888;2022-09-16T05:26:01;5.80;;;5.25;;
47713;SDS011;33475;46.614;13.888;2022-09-16T05:28:28;8.57;;;4.82;;
47713;SDS011;33475;46.614;13.888;2022-09-16T05:30:54;5.82;;;5.15;;
47713;SDS011;33475;46.614;13.888;2022-09-16T05:33:20;6.07;;;5.53;;
47713;SDS011;33475;46.614;13.888;2022-09-16T05:35:47;7.90;;;5.80;;
47713;SDS011;33475;46.614;13.888;2022-09-16T05:38:14;6.43;;;5.82;;
47713;SDS011;33475;46.614;13.888;2022-09-16T05:40:40;8.55;;;6.82;;
47713;SDS011;33475;46.614;13.888;2022-09-16T05:43:06;8.75;;;5.28;;
47713;SDS011;33475;46.614;13.888;2022-09-16T05:45:33;7.38;;;5.55;;
47713;SDS011;33475;46.614;13.888;2022-09-16T05:47:59;7.05;;;4.80;;
47713;SDS011;33475;46.614;13.888;2022-09-16T05:50:25;4.90;;;4.50;;
47713;SDS011;33475;46.614;13.888;2022-09-16T05:52:52;6.57;;;4.68;;
47713;SDS011;33475;46.614;13.888;2022-09-16T05:55:18;7.18;;;4.05;;
47713;SDS011;33475;46.614;13.888;2022-09-16T05:57:44;4.43;;;4.03;;
47713;SDS011;33475;46.614;13.888;2022-09-16T06:00:10;7.38;;;4.38;;
47713;SDS011;33475;46.614;13.888;2022-09-16T06:02:37;5.97;;;3.85;;
47713;SDS011;33475;46.614;13.888;2022-09-16T06:05:03;2.78;;;2.58;;
47713;SDS011;33475;46.614;13.888;2022-09-16T06:07:29;3.83;;;2.88;;
47713;SDS011;33475;46.614;13.888;2022-09-16T06:09:55;5.10;;;3.30;;
47713;SDS011;33475;46.614;13.888;2022-09-16T06:12:21;2.22;;;2.03;;
47713;SDS011;33475;46.614;13.888;2022-09-16T06:14:47;9.13;;;3.17;;
47713;SDS011;33475;46.614;13.888;2022-09-16T06:17:13;4.85;;;2.83;;
47713;SDS011;33475;46.614;13.888;2022-09-16T06:19:40;2.95;;;2.75;;
47713;SDS011;33475;46.614;13.888;2022-09-16T06:22:06;8.48;;;2.67;;
47713;SDS011;33475;46.614;13.888;2022-09-16T06:24:32;3.75;;;2.92;;
47713;SDS011;33475;46.614;13.888;2022-09-16T06:26:58;4.13;;;2.80;;
47713;SDS011;33475;46.614;13.888;2022-09-16T06:29:24;4.82;;;2.63;;
47713;SDS011;33475;46.614;13.888;2022-09-16T06:31:50;2.75;;;2.00;;
47713;SDS011;33475;46.614;13.888;2022-09-16T06:34:17;7.55;;;1.75;;
47713;SDS011;33475;46.614;13.888;2022-09-16T06:36:43;2.28;;;1.65;;
47713;SDS011;33475;46.614;13.888;2022-09-16T06:39:13;3.00;;;1.58;;
47713;SDS011;33475;46.614;13.888;2022-09-16T06:41:39;3.38;;;1.40;;
47713;SDS011;33475;46.614;13.888;2022-09-16T06:44:05;4.90;;;1.42;;
47713;SDS011;33475;46.614;13.888;2022-09-16T06:46:32;1.52;;;1.15;;
47713;SDS011;33475;46.614;13.888;2022-09-16T06:48:58;1.52;;;1.40;;
47713;SDS011;33475;46.614;13.888;2022-09-16T06:51:26;5.30;;;1.20;;
47713;SDS011;33475;46.614;13.888;2022-09-16T06:53:53;1.63;;;1.15;;
47713;SDS011;33475;46.614;13.888;2022-09-16T06:56:20;2.20;;;1.00;;
47713;SDS011;33475;46.614;13.888;2022-09-16T06:58:49;6.30;;;1.30;;
47713;SDS011;33475;46.614;13.888;2022-09-16T07:01:18;1.30;;;1.20;;
47713;SDS011;33475;46.614;13.888;2022-09-16T07:03:48;2.13;;;1.20;;
47713;SDS011;33475;46.614;13.888;2022-09-16T07:06:15;3.13;;;1.13;;
47713;SDS011;33475;46.614;13.888;2022-09-16T07:08:42;2.55;;;1.38;;
47713;SDS011;33475;46.614;13.888;2022-09-16T07:11:12;4.70;;;2.10;;
47713;SDS011;33475;46.614;13.888;2022-09-16T07:13:39;4.93;;;2.08;;
47713;SDS011;33475;46.614;13.888;2022-09-16T07:16:09;3.10;;;2.25;;
47713;SDS011;33475;46.614;13.888;2022-09-16T07:18:36;2.88;;;2.58;;
47713;SDS011;33475;46.614;13.888;2022-09-16T07:21:13;5.60;;;2.85;;
47713;SDS011;33475;46.614;13.888;2022-09-16T07:23:40;5.50;;;3.50;;
47713;SDS011;33475;46.614;13.888;2022-09-16T07:26:16;5.22;;;4.22;;
47713;SDS011;33475;46.614;13.888;2022-09-16T07:28:44;5.63;;;5.13;;
47713;SDS011;33475;46.614;13.888;2022-09-16T07:31:18;5.05;;;3.65;;
47713;SDS011;33475;46.614;13.888;2022-09-16T07:33:48;7.47;;;5.28;;
47713;SDS011;33475;46.614;13.888;2022-09-16T07:36:16;7.38;;;5.13;;
47713;SDS011;33475;46.614;13.888;2022-09-16T07:38:42;4.82;;;4.43;;
47713;SDS011;33475;46.614;13.888;2022-09-16T07:41:13;6.75;;;4.20;;
47713;SDS011;33475;46.614;13.888;2022-09-16T07:43:40;5.88;;;4.15;;
47713;SDS011;33475;46.614;13.888;2022-09-16T07:46:07;11.00;;;5.75;;
47713;SDS011;33475;46.614;13.888;2022-09-16T07:48:34;4.82;;;4.00;;
47713;SDS011;33475;46.614;13.888;2022-09-16T07:51:03;4.78;;;3.58;;
47713;SDS011;33475;46.614;13.888;2022-09-16T07:53:29;28.35;;;11.90;;
47713;SDS011;33475;46.614;13.888;2022-09-16T07:56:00;7.43;;;4.57;;
47713;SDS011;33475;46.614;13.888;2022-09-16T07:58:26;9.18;;;5.85;;
47713;SDS011;33475;46.614;13.888;2022-09-16T08:00:52;15.35;;;6.82;;
47713;SDS011;33475;46.614;13.888;2022-09-16T08:03:19;13.93;;;7.88;;
47713;SDS011;33475;46.614;13.888;2022-09-16T08:05:45;7.97;;;4.35;;
47713;SDS011;33475;46.614;13.888;2022-09-16T08:08:11;7.18;;;3.92;;
47713;SDS011;33475;46.614;13.888;2022-09-16T08:10:38;11.25;;;5.82;;
47713;SDS011;33475;46.614;13.888;2022-09-16T08:13:04;4.13;;;3.72;;
47713;SDS011;33475;46.614;13.888;2022-09-16T08:15:31;10.02;;;4.38;;
47713;SDS011;33475;46.614;13.888;2022-09-16T08:17:58;5.18;;;3.38;;
47713;SDS011;33475;46.614;13.888;2022-09-16T08:20:24;5.10;;;3.45;;
47713;SDS011;33475;46.614;13.888;2022-09-16T08:22:51;3.90;;;3.60;;
47713;SDS011;33475;46.614;13.888;2022-09-16T08:25:18;5.85;;;4.68;;
47713;SDS011;33475;46.614;13.888;2022-09-16T08:27:44;4.82;;;3.45;;
47713;SDS011;33475;46.614;13.888;2022-09-16T08:30:10;7.75;;;3.67;;
47713;SDS011;33475;46.614;13.888;2022-09-16T08:32:37;4.93;;;3.85;;
47713;SDS011;33475;46.614;13.888;2022-09-16T08:35:03;4.15;;;3.30;;
47713;SDS011;33475;46.614;13.888;2022-09-16T08:37:29;3.97;;;3.58;;
47713;SDS011;33475;46.614;13.888;2022-09-16T08:39:55;5.35;;;4.05;;
47713;SDS011;33475;46.614;13.888;2022-09-16T08:42:40;3.30;;;3.00;;
47713;SDS011;33475;46.614;13.888;2022-09-16T08:45:13;4.13;;;2.97;;
47713;SDS011;33475;46.614;13.888;2022-09-16T08:47:49;3.78;;;2.70;;
47713;SDS011;33475;46.614;13.888;2022-09-16T08:50:21;3.00;;;2.80;;
47713;SDS011;33475;46.614;13.888;2022-09-16T08:52:48;5.53;;;3.22;;
47713;SDS011;33475;46.614;13.888;2022-09-16T08:57:44;2.95;;;2.40;;
47713;SDS011;33475;46.614;13.888;2022-09-16T09:00:17;7.03;;;2.67;;
47713;SDS011;33475;46.614;13.888;2022-09-16T09:05:17;6.07;;;3.47;;
47713;SDS011;33475;46.614;13.888;2022-09-16T09:10:24;5.13;;;3.38;;
47713;SDS011;33475;46.614;13.888;2022-09-16T09:15:29;3.17;;;2.88;;
47713;SDS011;33475;46.614;13.888;2022-09-16T09:18:06;4.70;;;3.28;;
47713;SDS011;33475;46.614;13.888;2022-09-16T09:34:25;4.55;;;3.17;;
47713;SDS011;33475;46.614;13.888;2022-09-16T09:36:32;3.50;;;3.20;;
47713;SDS011;33475;46.614;13.888;2022-09-16T09:41:51;4.05;;;2.78;;
47713;SDS011;33475;46.614;13.888;2022-09-16T09:46:55;7.57;;;2.85;;
47713;SDS011;33475;46.614;13.888;2022-09-16T09:49:32;7.25;;;2.50;;
47713;SDS011;33475;46.614;13.888;2022-09-16T09:56:56;4.38;;;2.80;;
47713;SDS011;33475;46.614;13.888;2022-09-16T09:59:37;3.80;;;2.80;;
47713;SDS011;33475;46.614;13.888;2022-09-16T10:02:06;4.03;;;2.70;;
47713;SDS011;33475;46.614;13.888;2022-09-16T10:04:36;7.22;;;3.35;;
47713;SDS011;33475;46.614;13.888;2022-09-16T10:07:03;5.90;;;3.00;;
47713;SDS011;33475;46.614;13.888;2022-09-16T10:09:29;5.68;;;2.58;;
47713;SDS011;33475;46.614;13.888;2022-09-16T10:11:56;3.88;;;3.08;;
47713;SDS011;33475;46.614;13.888;2022-09-16T10:14:30;4.05;;;3.47;;
47713;SDS011;33475;46.614;13.888;2022-09-16T10:17:00;4.13;;;3.45;;
47713;SDS011;33475;46.614;13.888;2022-09-16T10:19:27;2.83;;;2.60;;
47713;SDS011;33475;46.614;13.888;2022-09-16T10:21:55;4.68;;;2.63;;
47713;SDS011;33475;46.614;13.888;2022-09-16T10:24:32;2.75;;;2.53;;
47713;SDS011;33475;46.614;13.888;2022-09-16T10:26:59;6.13;;;3.10;;
47713;SDS011;33475;46.614;13.888;2022-09-16T10:29:26;4.15;;;2.53;;
47713;SDS011;33475;46.614;13.888;2022-09-16T10:31:52;4.03;;;1.92;;
47713;SDS011;33475;46.614;13.888;2022-09-16T10:34:30;2.65;;;2.13;;
47713;SDS011;33475;46.614;13.888;2022-09-16T10:37:17;3.03;;;2.40;;
47713;SDS011;33475;46.614;13.888;2022-09-16T10:39:51;2.78;;;2.58;;
47713;SDS011;33475;46.614;13.888;2022-09-16T10:42:18;3.88;;;2.58;;
47713;SDS011;33475;46.614;13.888;2022-09-16T10:44:46;2.75;;;2.17;;
47713;SDS011;33475;46.614;13.888;2022-09-16T10:47:22;1.75;;;1.65;;
47713;SDS011;33475;46.614;13.888;2022-09-16T10:49:56;2.17;;;1.80;;
47713;SDS011;33475;46.614;13.888;2022-09-16T10:52:26;4.72;;;1.60;;
47713;SDS011;33475;46.614;13.888;2022-09-16T10:54:53;4.32;;;2.10;;
47713;SDS011;33475;46.614;13.888;2022-09-16T10:57:20;2.40;;;1.75;;
47713;SDS011;33475;46.614;13.888;2022-09-16T10:59:55;3.80;;;1.63;;
47713;SDS011;33475;46.614;13.888;2022-09-16T11:02:26;2.47;;;1.70;;
47713;SDS011;33475;46.614;13.888;2022-09-16T11:05:07;2.00;;;1.77;;
47713;SDS011;33475;46.614;13.888;2022-09-16T11:07:45;8.18;;;1.92;;
47713;SDS011;33475;46.614;13.888;2022-09-16T11:10:26;3.80;;;2.28;;
47713;SDS011;33475;46.614;13.888;2022-09-16T11:12:59;2.15;;;1.80;;
47713;SDS011;33475;46.614;13.888;2022-09-16T11:25:43;1.63;;;1.52;;
47713;SDS011;33475;46.614;13.888;2022-09-16T11:30:54;3.38;;;1.70;;
47713;SDS011;33475;46.614;13.888;2022-09-16T11:33:24;4.05;;;1.58;;
47713;SDS011;33475;46.614;13.888;2022-09-16T11:38:42;6.03;;;3.50;;
47713;SDS011;33475;46.614;13.888;2022-09-16T11:41:32;5.43;;;2.47;;
47713;SDS011;33475;46.614;13.888;2022-09-16T12:01:44;2.00;;;1.00;;
47713;SDS011;33475;46.614;13.888;2022-09-16T12:09:30;3.50;;;1.52;;
47713;SDS011;33475;46.614;13.888;2022-09-16T12:12:04;3.30;;;1.23;;
47713;SDS011;33475;46.614;13.888;2022-09-16T12:14:34;2.45;;;1.08;;
47713;SDS011;33475;46.614;13.888;2022-09-16T12:17:06;2.45;;;0.90;;
47713;SDS011;33475;46.614;13.888;2022-09-16T12:19:36;1.55;;;1.10;;
47713;SDS011;33475;46.614;13.888;2022-09-16T12:22:09;2.00;;;1.10;;
47713;SDS011;33475;46.614;13.888;2022-09-16T12:35:15;2.00;;;0.98;;
47713;SDS011;33475;46.614;13.888;2022-09-16T12:37:46;1.30;;;1.00;;
47713;SDS011;33475;46.614;13.888;2022-09-16T12:40:19;1.63;;;0.82;;
47713;SDS011;33475;46.614;13.888;2022-09-16T12:48:01;2.08;;;0.80;;
47713;SDS011;33475;46.614;13.888;2022-09-16T12:53:30;1.95;;;0.70;;
47713;SDS011;33475;46.614;13.888;2022-09-16T13:00:54;0.30;;;0.30;;
47713;SDS011;33475;46.614;13.888;2022-09-16T13:03:24;0.38;;;0.30;;
47713;SDS011;33475;46.614;13.888;2022-09-16T13:05:52;1.02;;;0.30;;
47713;SDS011;33475;46.614;13.888;2022-09-16T13:08:28;0.40;;;0.40;;
47713;SDS011;33475;46.614;13.888;2022-09-16T13:13:28;1.88;;;0.43;;
47713;SDS011;33475;46.614;13.888;2022-09-16T13:15:55;0.60;;;0.40;;
47713;SDS011;33475;46.614;13.888;2022-09-16T13:18:36;1.10;;;0.50;;
47713;SDS011;33475;46.614;13.888;2022-09-16T13:23:50;4.53;;;0.70;;
47713;SDS011;33475;46.614;13.888;2022-09-16T13:26:17;0.90;;;0.60;;
47713;SDS011;33475;46.614;13.888;2022-09-16T13:28:44;0.93;;;0.82;;
47713;SDS011;33475;46.614;13.888;2022-09-16T13:38:40;0.82;;;0.63;;
47713;SDS011;33475;46.614;13.888;2022-09-16T13:41:08;0.45;;;0.45;;
47713;SDS011;33475;46.614;13.888;2022-09-16T13:46:05;0.75;;;0.50;;
47713;SDS011;33475;46.614;13.888;2022-09-16T13:48:45;0.93;;;0.60;;
47713;SDS011;33475;46.614;13.888;2022-09-16T13:51:17;3.08;;;1.35;;
47713;SDS011;33475;46.614;13.888;2022-09-16T13:53:46;1.15;;;0.57;;
47713;SDS011;33475;46.614;13.888;2022-09-16T14:05:07;0.85;;;0.55;;
47713;SDS011;33475;46.614;13.888;2022-09-16T14:14:34;0.80;;;0.80;;
47713;SDS011;33475;46.614;13.888;2022-09-16T14:17:04;2.75;;;0.63;;
47713;SDS011;33475;46.614;13.888;2022-09-16T14:19:38;2.03;;;0.68;;
47713;SDS011;33475;46.614;13.888;2022-09-16T14:22:10;1.20;;;0.40;;
47713;SDS011;33475;46.614;13.888;2022-09-16T14:24:39;0.35;;;0.32;;
47713;SDS011;33475;46.614;13.888;2022-09-16T14:27:16;2.85;;;0.60;;
47713;SDS011;33475;46.614;13.888;2022-09-16T14:32:26;2.10;;;0.80;;
47713;SDS011;33475;46.614;13.888;2022-09-16T14:34:53;1.60;;;0.80;;
47713;SDS011;33475;46.614;13.888;2022-09-16T14:37:23;1.17;;;1.05;;
47713;SDS011;33475;46.614;13.888;2022-09-16T14:39:49;0.68;;;0.60;;
47713;SDS011;33475;46.614;13.888;2022-09-16T14:42:18;1.60;;;0.68;;
47713;SDS011;33475;46.614;13.888;2022-09-16T14:44:46;0.43;;;0.43;;
47713;SDS011;33475;46.614;13.888;2022-09-16T14:49:53;0.70;;;0.70;;
47713;SDS011;33475;46.614;13.888;2022-09-16T14:52:22;0.88;;;0.68;;
47713;SDS011;33475;46.614;13.888;2022-09-16T14:54:48;1.25;;;0.60;;
47713;SDS011;33475;46.614;13.888;2022-09-16T14:57:20;2.33;;;0.70;;
47713;SDS011;33475;46.614;13.888;2022-09-16T14:59:51;2.28;;;1.40;;
47713;SDS011;33475;46.614;13.888;2022-09-16T15:02:22;2.80;;;2.22;;
47713;SDS011;33475;46.614;13.888;2022-09-16T15:04:51;2.15;;;1.58;;
47713;SDS011;33475;46.614;13.888;2022-09-16T15:07:40;3.17;;;2.72;;
47713;SDS011;33475;46.614;13.888;2022-09-16T15:10:08;2.72;;;1.95;;
47713;SDS011;33475;46.614;13.888;2022-09-16T15:12:46;2.13;;;0.82;;
47713;SDS011;33475;46.614;13.888;2022-09-16T15:15:18;1.98;;;1.33;;
47713;SDS011;33475;46.614;13.888;2022-09-16T15:20:31;3.13;;;0.63;;
47713;SDS011;33475;46.614;13.888;2022-09-16T15:22:58;1.10;;;1.00;;
47713;SDS011;33475;46.614;13.888;2022-09-16T15:25:29;0.93;;;0.70;;
47713;SDS011;33475;46.614;13.888;2022-09-16T15:28:17;0.70;;;0.68;;
47713;SDS011;33475;46.614;13.888;2022-09-16T15:30:45;0.60;;;0.47;;
47713;SDS011;33475;46.614;13.888;2022-09-16T15:36:29;1.42;;;0.70;;
47713;SDS011;33475;46.614;13.888;2022-09-16T15:38:56;1.58;;;0.75;;
47713;SDS011;33475;46.614;13.888;2022-09-16T15:41:22;0.88;;;0.68;;
47713;SDS011;33475;46.614;13.888;2022-09-16T15:43:49;1.90;;;0.80;;
47713;SDS011;33475;46.614;13.888;2022-09-16T15:46:17;0.88;;;0.73;;
47713;SDS011;33475;46.614;13.888;2022-09-16T15:48:56;1.38;;;0.80;;
47713;SDS011;33475;46.614;13.888;2022-09-16T15:54:06;0.75;;;0.63;;
47713;SDS011;33475;46.614;13.888;2022-09-16T15:56:38;2.88;;;0.90;;
47713;SDS011;33475;46.614;13.888;2022-09-16T15:59:17;1.10;;;1.00;;
47713;SDS011;33475;46.614;13.888;2022-09-16T16:01:46;1.55;;;0.80;;
47713;SDS011;33475;46.614;13.888;2022-09-16T16:04:20;1.52;;;1.40;;
47713;SDS011;33475;46.614;13.888;2022-09-16T16:06:57;2.15;;;1.00;;
47713;SDS011;33475;46.614;13.888;2022-09-16T16:11:53;1.08;;;0.70;;
47713;SDS011;33475;46.614;13.888;2022-09-16T16:14:20;1.48;;;0.57;;
47713;SDS011;33475;46.614;13.888;2022-09-16T16:16:50;1.70;;;0.60;;
47713;SDS011;33475;46.614;13.888;2022-09-16T16:19:16;0.95;;;0.50;;
47713;SDS011;33475;46.614;13.888;2022-09-16T16:21:43;0.88;;;0.65;;
47713;SDS011;33475;46.614;13.888;2022-09-16T16:24:12;0.90;;;0.70;;
47713;SDS011;33475;46.614;13.888;2022-09-16T16:26:39;1.00;;;0.50;;
47713;SDS011;33475;46.614;13.888;2022-09-16T16:29:05;5.60;;;0.80;;
47713;SDS011;33475;46.614;13.888;2022-09-16T16:31:32;2.25;;;0.50;;
47713;SDS011;33475;46.614;13.888;2022-09-16T16:34:00;0.93;;;0.68;;
47713;SDS011;33475;46.614;13.888;2022-09-16T16:36:26;0.70;;;0.60;;
47713;SDS011;33475;46.614;13.888;2022-09-16T16:38:52;1.05;;;0.80;;
47713;SDS011;33475;46.614;13.888;2022-09-16T16:41:22;1.15;;;0.75;;
47713;SDS011;33475;46.614;13.888;2022-09-16T16:43:49;2.08;;;0.80;;
47713;SDS011;33475;46.614;13.888;2022-09-16T16:46:16;1.70;;;0.70;;
47713;SDS011;33475;46.614;13.888;2022-09-16T16:48:42;1.17;;;1.08;;
47713;SDS011;33475;46.614;13.888;2022-09-16T16:51:09;1.45;;;1.10;;
47713;SDS011;33475;46.614;13.888;2022-09-16T16:53:36;1.40;;;1.23;;
47713;SDS011;33475;46.614;13.888;2022-09-16T16:58:30;2.10;;;1.80;;
47713;SDS011;33475;46.614;13.888;2022-09-16T17:01:04;2.17;;;0.73;;
47713;SDS011;33475;46.614;13.888;2022-09-16T17:03:31;2.75;;;0.70;;
47713;SDS011;33475;46.614;13.888;2022-09-16T17:05:57;0.68;;;0.57;;
47713;SDS011;33475;46.614;13.888;2022-09-16T17:08:23;0.50;;;0.43;;
47713;SDS011;33475;46.614;13.888;2022-09-16T17:10:56;29.40;;;13.10;;
47713;SDS011;33475;46.614;13.888;2022-09-16T17:13:29;20.77;;;9.20;;
47713;SDS011;33475;46.614;13.888;2022-09-16T17:15:56;23.63;;;10.52;;
47713;SDS011;33475;46.614;13.888;2022-09-16T17:18:22;5.63;;;3.58;;
47713;SDS011;33475;46.614;13.888;2022-09-16T17:20:48;5.78;;;3.75;;
47713;SDS011;33475;46.614;13.888;2022-09-16T17:23:15;23.85;;;10.27;;
47713;SDS011;33475;46.614;13.888;2022-09-16T17:25:41;7.82;;;3.58;;
47713;SDS011;33475;46.614;13.888;2022-09-16T17:28:07;1.60;;;1.50;;
47713;SDS011;33475;46.614;13.888;2022-09-16T17:30:34;5.45;;;0.70;;
47713;SDS011;33475;46.614;13.888;2022-09-16T17:33:00;3.05;;;0.80;;
47713;SDS011;33475;46.614;13.888;2022-09-16T17:35:26;3.60;;;1.88;;
47713;SDS011;33475;46.614;13.888;2022-09-16T17:37:52;1.50;;;0.93;;
47713;SDS011;33475;46.614;13.888;2022-09-16T17:40:18;2.78;;;0.80;;
47713;SDS011;33475;46.614;13.888;2022-09-16T17:42:49;3.78;;;1.02;;
47713;SDS011;33475;46.614;13.888;2022-09-16T17:45:16;1.58;;;0.90;;
47713;SDS011;33475;46.614;13.888;2022-09-16T17:47:42;3.30;;;0.80;;
47713;SDS011;33475;46.614;13.888;2022-09-16T17:50:08;9.43;;;7.75;;
47713;SDS011;33475;46.614;13.888;2022-09-16T17:52:34;16.38;;;10.25;;
47713;SDS011;33475;46.614;13.888;2022-09-16T17:55:00;8.95;;;3.22;;
47713;SDS011;33475;46.614;13.888;2022-09-16T17:57:26;2.85;;;2.28;;